sensor_id;sensor_type;location;lat;lon;timestamp;P1;durP1;ratioP1;P2;durP2;ratioP2
16262;SDS011;8239;48.594;8.598;2023-05-07T00:01:40;7.10;;;4.80;;
16262;SDS011;8239;48.594;8.598;2023-05-07T00:04:07;6.20;;;4.90;;
16262;SDS011;8239;48.594;8.598;2023-05-07T00:06:34;6.80;;;4.83;;
16262;SDS011;8239;48.594;8.598;2023-05-07T00:09:01;5.50;;;4.60;;
16262;SDS011;8239;48.594;8.598;2023-05-07T00:11:29;6.30;;;4.57;;
16262;SDS011;8239;48.594;8.598;2023-05-07T00:13:56;5.13;;;3.70;;
16262;SDS011;8239;48.594;8.598;2023-05-07T00:16:23;5.90;;;3.80;;
16262;SDS011;8239;48.594;8.598;2023-05-07T00:18:51;6.93;;;4.33;;
16262;SDS011;8239;48.594;8.598;2023-05-07T00:21:18;7.47;;;4.37;;
16262;SDS011;8239;48.594;8.598;2023-05-07T00:23:46;4.57;;;3.70;;
16262;SDS011;8239;48.594;8.598;2023-05-07T00:26:13;4.90;;;3.90;;
16262;SDS011;8239;48.594;8.598;2023-05-07T00:28:40;3.90;;;3.57;;
16262;SDS011;8239;48.594;8.598;2023-05-07T00:31:07;5.57;;;3.80;;
16262;SDS011;8239;48.594;8.598;2023-05-07T00:33:35;5.27;;;3.63;;
16262;SDS011;8239;48.594;8.598;2023-05-07T00:36:03;3.83;;;3.53;;
16262;SDS011;8239;48.594;8.598;2023-05-07T00:38:31;4.27;;;3.67;;
16262;SDS011;8239;48.594;8.598;2023-05-07T00:40:58;4.43;;;3.50;;
16262;SDS011;8239;48.594;8.598;2023-05-07T00:43:24;6.27;;;3.53;;
16262;SDS011;8239;48.594;8.598;2023-05-07T00:45:52;4.73;;;3.20;;
16262;SDS011;8239;48.594;8.598;2023-05-07T00:48:19;4.90;;;3.60;;
16262;SDS011;8239;48.594;8.598;2023-05-07T00:50:49;3.90;;;3.50;;
16262;SDS011;8239;48.594;8.598;2023-05-07T00:53:18;5.23;;;3.53;;
16262;SDS011;8239;48.594;8.598;2023-05-07T00:55:45;5.40;;;3.40;;
16262;SDS011;8239;48.594;8.598;2023-05-07T00:58:12;4.00;;;3.30;;
16262;SDS011;8239;48.594;8.598;2023-05-07T01:00:39;6.30;;;3.53;;
16262;SDS011;8239;48.594;8.598;2023-05-07T01:03:06;3.93;;;3.53;;
16262;SDS011;8239;48.594;8.598;2023-05-07T01:05:33;5.00;;;3.73;;
16262;SDS011;8239;48.594;8.598;2023-05-07T01:08:01;3.80;;;3.30;;
16262;SDS011;8239;48.594;8.598;2023-05-07T01:10:31;4.73;;;3.47;;
16262;SDS011;8239;48.594;8.598;2023-05-07T01:12:58;4.50;;;3.43;;
16262;SDS011;8239;48.594;8.598;2023-05-07T01:15:26;3.33;;;3.03;;
16262;SDS011;8239;48.594;8.598;2023-05-07T01:17:53;3.83;;;3.40;;
16262;SDS011;8239;48.594;8.598;2023-05-07T01:20:22;3.40;;;3.10;;
16262;SDS011;8239;48.594;8.598;2023-05-07T01:22:51;3.70;;;3.30;;
16262;SDS011;8239;48.594;8.598;2023-05-07T01:25:19;4.90;;;3.30;;
16262;SDS011;8239;48.594;8.598;2023-05-07T01:27:46;5.03;;;3.27;;
16262;SDS011;8239;48.594;8.598;2023-05-07T01:30:13;4.90;;;3.40;;
16262;SDS011;8239;48.594;8.598;2023-05-07T01:32:42;4.87;;;3.70;;
16262;SDS011;8239;48.594;8.598;2023-05-07T01:35:15;5.00;;;3.67;;
16262;SDS011;8239;48.594;8.598;2023-05-07T01:37:45;5.00;;;3.57;;
16262;SDS011;8239;48.594;8.598;2023-05-07T01:40:14;3.40;;;3.10;;
16262;SDS011;8239;48.594;8.598;2023-05-07T01:42:42;5.03;;;3.03;;
16262;SDS011;8239;48.594;8.598;2023-05-07T01:45:10;4.23;;;3.40;;
16262;SDS011;8239;48.594;8.598;2023-05-07T01:47:37;3.27;;;2.97;;
16262;SDS011;8239;48.594;8.598;2023-05-07T01:50:06;4.30;;;3.10;;
16262;SDS011;8239;48.594;8.598;2023-05-07T01:52:35;6.70;;;4.90;;
16262;SDS011;8239;48.594;8.598;2023-05-07T01:55:03;7.23;;;4.97;;
16262;SDS011;8239;48.594;8.598;2023-05-07T01:57:33;6.90;;;4.97;;
16262;SDS011;8239;48.594;8.598;2023-05-07T02:00:00;6.80;;;4.37;;
16262;SDS011;8239;48.594;8.598;2023-05-07T02:02:31;5.20;;;4.47;;
16262;SDS011;8239;48.594;8.598;2023-05-07T02:04:58;5.50;;;3.30;;
16262;SDS011;8239;48.594;8.598;2023-05-07T02:07:25;5.50;;;3.50;;
16262;SDS011;8239;48.594;8.598;2023-05-07T02:09:52;3.83;;;2.90;;
16262;SDS011;8239;48.594;8.598;2023-05-07T02:12:20;3.63;;;3.33;;
16262;SDS011;8239;48.594;8.598;2023-05-07T02:14:48;5.33;;;3.23;;
16262;SDS011;8239;48.594;8.598;2023-05-07T02:17:15;3.50;;;3.20;;
16262;SDS011;8239;48.594;8.598;2023-05-07T02:19:42;3.63;;;3.10;;
16262;SDS011;8239;48.594;8.598;2023-05-07T02:22:10;3.40;;;3.10;;
16262;SDS011;8239;48.594;8.598;2023-05-07T02:24:36;4.03;;;3.03;;
16262;SDS011;8239;48.594;8.598;2023-05-07T02:27:03;3.50;;;2.73;;
16262;SDS011;8239;48.594;8.598;2023-05-07T02:29:30;5.20;;;3.60;;
16262;SDS011;8239;48.594;8.598;2023-05-07T02:31:59;3.93;;;3.40;;
16262;SDS011;8239;48.594;8.598;2023-05-07T02:34:26;3.73;;;3.30;;
16262;SDS011;8239;48.594;8.598;2023-05-07T02:36:53;3.90;;;3.47;;
16262;SDS011;8239;48.594;8.598;2023-05-07T02:39:20;3.80;;;3.40;;
16262;SDS011;8239;48.594;8.598;2023-05-07T02:41:47;6.23;;;3.73;;
16262;SDS011;8239;48.594;8.598;2023-05-07T02:44:14;4.00;;;3.60;;
16262;SDS011;8239;48.594;8.598;2023-05-07T02:46:41;4.33;;;3.50;;
16262;SDS011;8239;48.594;8.598;2023-05-07T02:49:09;4.63;;;3.53;;
16262;SDS011;8239;48.594;8.598;2023-05-07T02:51:36;5.87;;;3.40;;
16262;SDS011;8239;48.594;8.598;2023-05-07T02:54:04;5.00;;;3.90;;
16262;SDS011;8239;48.594;8.598;2023-05-07T02:56:31;5.93;;;4.20;;
16262;SDS011;8239;48.594;8.598;2023-05-07T02:58:58;5.23;;;4.20;;
16262;SDS011;8239;48.594;8.598;2023-05-07T03:01:25;6.33;;;4.10;;
16262;SDS011;8239;48.594;8.598;2023-05-07T03:03:52;4.80;;;3.90;;
16262;SDS011;8239;48.594;8.598;2023-05-07T03:06:20;4.77;;;3.87;;
16262;SDS011;8239;48.594;8.598;2023-05-07T03:08:47;5.37;;;3.80;;
16262;SDS011;8239;48.594;8.598;2023-05-07T03:11:14;3.63;;;3.33;;
16262;SDS011;8239;48.594;8.598;2023-05-07T03:13:41;4.80;;;4.07;;
16262;SDS011;8239;48.594;8.598;2023-05-07T03:16:08;4.57;;;4.17;;
16262;SDS011;8239;48.594;8.598;2023-05-07T03:18:34;5.60;;;4.07;;
16262;SDS011;8239;48.594;8.598;2023-05-07T03:21:01;4.53;;;4.13;;
16262;SDS011;8239;48.594;8.598;2023-05-07T03:23:30;5.70;;;4.60;;
16262;SDS011;8239;48.594;8.598;2023-05-07T03:25:57;7.23;;;5.50;;
16262;SDS011;8239;48.594;8.598;2023-05-07T03:28:24;7.00;;;5.83;;
16262;SDS011;8239;48.594;8.598;2023-05-07T03:30:51;4.73;;;4.20;;
16262;SDS011;8239;48.594;8.598;2023-05-07T03:33:18;5.10;;;4.23;;
16262;SDS011;8239;48.594;8.598;2023-05-07T03:35:45;4.40;;;4.00;;
16262;SDS011;8239;48.594;8.598;2023-05-07T03:38:12;5.60;;;4.17;;
16262;SDS011;8239;48.594;8.598;2023-05-07T03:40:40;6.27;;;4.40;;
16262;SDS011;8239;48.594;8.598;2023-05-07T03:43:07;5.97;;;4.83;;
16262;SDS011;8239;48.594;8.598;2023-05-07T03:45:34;7.00;;;4.70;;
16262;SDS011;8239;48.594;8.598;2023-05-07T03:48:01;7.90;;;4.63;;
16262;SDS011;8239;48.594;8.598;2023-05-07T03:50:28;5.73;;;4.57;;
16262;SDS011;8239;48.594;8.598;2023-05-07T03:52:55;4.63;;;4.23;;
16262;SDS011;8239;48.594;8.598;2023-05-07T03:55:22;4.37;;;3.90;;
16262;SDS011;8239;48.594;8.598;2023-05-07T03:57:50;5.53;;;4.30;;
16262;SDS011;8239;48.594;8.598;2023-05-07T04:00:17;4.53;;;4.00;;
16262;SDS011;8239;48.594;8.598;2023-05-07T04:02:45;5.83;;;4.00;;
16262;SDS011;8239;48.594;8.598;2023-05-07T04:05:12;5.53;;;4.10;;
16262;SDS011;8239;48.594;8.598;2023-05-07T04:07:40;5.10;;;4.27;;
16262;SDS011;8239;48.594;8.598;2023-05-07T04:10:10;4.37;;;3.97;;
16262;SDS011;8239;48.594;8.598;2023-05-07T04:12:38;4.90;;;4.40;;
16262;SDS011;8239;48.594;8.598;2023-05-07T04:15:07;6.63;;;4.97;;
16262;SDS011;8239;48.594;8.598;2023-05-07T04:17:34;5.83;;;5.17;;
16262;SDS011;8239;48.594;8.598;2023-05-07T04:20:01;5.73;;;5.10;;
16262;SDS011;8239;48.594;8.598;2023-05-07T04:22:29;4.70;;;4.17;;
16262;SDS011;8239;48.594;8.598;2023-05-07T04:24:56;4.83;;;3.37;;
16262;SDS011;8239;48.594;8.598;2023-05-07T04:27:23;3.83;;;3.47;;
16262;SDS011;8239;48.594;8.598;2023-05-07T04:29:50;4.47;;;3.33;;
16262;SDS011;8239;48.594;8.598;2023-05-07T04:32:22;3.60;;;3.30;;
16262;SDS011;8239;48.594;8.598;2023-05-07T04:34:50;3.50;;;3.20;;
16262;SDS011;8239;48.594;8.598;2023-05-07T04:37:17;3.50;;;3.20;;
16262;SDS011;8239;48.594;8.598;2023-05-07T04:39:44;3.67;;;3.37;;
16262;SDS011;8239;48.594;8.598;2023-05-07T04:42:14;4.03;;;3.73;;
16262;SDS011;8239;48.594;8.598;2023-05-07T04:44:41;5.03;;;3.73;;
16262;SDS011;8239;48.594;8.598;2023-05-07T04:47:08;3.93;;;3.60;;
16262;SDS011;8239;48.594;8.598;2023-05-07T04:49:36;3.20;;;2.90;;
16262;SDS011;8239;48.594;8.598;2023-05-07T04:52:04;3.33;;;3.03;;
16262;SDS011;8239;48.594;8.598;2023-05-07T04:54:31;3.20;;;2.53;;
16262;SDS011;8239;48.594;8.598;2023-05-07T04:56:58;4.03;;;3.00;;
16262;SDS011;8239;48.594;8.598;2023-05-07T04:59:25;3.23;;;2.73;;
16262;SDS011;8239;48.594;8.598;2023-05-07T05:01:51;2.97;;;2.77;;
16262;SDS011;8239;48.594;8.598;2023-05-07T05:04:18;3.20;;;2.90;;
16262;SDS011;8239;48.594;8.598;2023-05-07T05:06:47;3.50;;;2.70;;
16262;SDS011;8239;48.594;8.598;2023-05-07T05:09:14;3.13;;;2.83;;
16262;SDS011;8239;48.594;8.598;2023-05-07T05:11:41;3.47;;;3.17;;
16262;SDS011;8239;48.594;8.598;2023-05-07T05:14:08;3.80;;;3.50;;
16262;SDS011;8239;48.594;8.598;2023-05-07T05:16:35;3.27;;;2.97;;
16262;SDS011;8239;48.594;8.598;2023-05-07T05:19:02;3.13;;;2.43;;
16262;SDS011;8239;48.594;8.598;2023-05-07T05:21:31;2.50;;;2.30;;
16262;SDS011;8239;48.594;8.598;2023-05-07T05:23:59;2.53;;;2.10;;
16262;SDS011;8239;48.594;8.598;2023-05-07T05:26:26;2.47;;;2.23;;
16262;SDS011;8239;48.594;8.598;2023-05-07T05:28:53;2.20;;;2.10;;
16262;SDS011;8239;48.594;8.598;2023-05-07T05:31:20;3.00;;;2.20;;
16262;SDS011;8239;48.594;8.598;2023-05-07T05:33:47;2.20;;;2.10;;
16262;SDS011;8239;48.594;8.598;2023-05-07T05:36:14;2.13;;;2.03;;
16262;SDS011;8239;48.594;8.598;2023-05-07T05:38:41;2.57;;;2.20;;
16262;SDS011;8239;48.594;8.598;2023-05-07T05:41:10;5.13;;;2.50;;
16262;SDS011;8239;48.594;8.598;2023-05-07T05:43:37;3.10;;;2.80;;
16262;SDS011;8239;48.594;8.598;2023-05-07T05:46:04;3.10;;;2.90;;
16262;SDS011;8239;48.594;8.598;2023-05-07T05:48:31;2.67;;;2.43;;
16262;SDS011;8239;48.594;8.598;2023-05-07T05:50:58;2.37;;;2.20;;
16262;SDS011;8239;48.594;8.598;2023-05-07T05:53:25;3.20;;;2.00;;
16262;SDS011;8239;48.594;8.598;2023-05-07T05:55:52;2.47;;;1.97;;
16262;SDS011;8239;48.594;8.598;2023-05-07T05:58:20;3.17;;;2.20;;
16262;SDS011;8239;48.594;8.598;2023-05-07T06:00:47;3.00;;;2.20;;
16262;SDS011;8239;48.594;8.598;2023-05-07T06:03:17;2.90;;;2.10;;
16262;SDS011;8239;48.594;8.598;2023-05-07T06:05:44;2.08;;;1.88;;
16262;SDS011;8239;48.594;8.598;2023-05-07T06:08:11;2.50;;;1.90;;
16262;SDS011;8239;48.594;8.598;2023-05-07T06:10:38;3.53;;;1.90;;
16262;SDS011;8239;48.594;8.598;2023-05-07T06:13:05;2.40;;;2.20;;
16262;SDS011;8239;48.594;8.598;2023-05-07T06:15:34;2.70;;;2.10;;
16262;SDS011;8239;48.594;8.598;2023-05-07T06:18:01;5.28;;;1.90;;
16262;SDS011;8239;48.594;8.598;2023-05-07T06:20:27;3.25;;;2.10;;
16262;SDS011;8239;48.594;8.598;2023-05-07T06:22:54;2.83;;;2.03;;
16262;SDS011;8239;48.594;8.598;2023-05-07T06:25:21;3.60;;;2.00;;
16262;SDS011;8239;48.594;8.598;2023-05-07T06:27:48;2.60;;;1.83;;
16262;SDS011;8239;48.594;8.598;2023-05-07T06:30:15;2.17;;;2.00;;
16262;SDS011;8239;48.594;8.598;2023-05-07T06:32:44;3.05;;;1.80;;
16262;SDS011;8239;48.594;8.598;2023-05-07T06:35:11;3.40;;;1.90;;
16262;SDS011;8239;48.594;8.598;2023-05-07T06:37:38;2.00;;;1.70;;
16262;SDS011;8239;48.594;8.598;2023-05-07T06:40:07;1.75;;;1.60;;
16262;SDS011;8239;48.594;8.598;2023-05-07T06:42:35;4.07;;;2.00;;
16262;SDS011;8239;48.594;8.598;2023-05-07T06:45:03;2.28;;;2.05;;
16262;SDS011;8239;48.594;8.598;2023-05-07T06:47:30;2.58;;;2.38;;
16262;SDS011;8239;48.594;8.598;2023-05-07T06:49:58;2.30;;;2.20;;
16262;SDS011;8239;48.594;8.598;2023-05-07T06:52:25;2.03;;;1.92;;
16262;SDS011;8239;48.594;8.598;2023-05-07T06:54:52;3.03;;;2.30;;
16262;SDS011;8239;48.594;8.598;2023-05-07T06:57:19;2.80;;;2.53;;
16262;SDS011;8239;48.594;8.598;2023-05-07T06:59:46;3.00;;;2.70;;
16262;SDS011;8239;48.594;8.598;2023-05-07T07:02:13;3.40;;;3.10;;
16262;SDS011;8239;48.594;8.598;2023-05-07T07:04:40;3.08;;;2.70;;
16262;SDS011;8239;48.594;8.598;2023-05-07T07:07:08;3.08;;;2.88;;
16262;SDS011;8239;48.594;8.598;2023-05-07T07:09:35;2.85;;;2.63;;
16262;SDS011;8239;48.594;8.598;2023-05-07T07:12:03;3.10;;;2.90;;
16262;SDS011;8239;48.594;8.598;2023-05-07T07:14:30;3.40;;;2.70;;
16262;SDS011;8239;48.594;8.598;2023-05-07T07:16:57;3.25;;;2.95;;
16262;SDS011;8239;48.594;8.598;2023-05-07T07:19:24;2.70;;;2.50;;
16262;SDS011;8239;48.594;8.598;2023-05-07T07:21:51;3.20;;;2.90;;
16262;SDS011;8239;48.594;8.598;2023-05-07T07:24:20;2.95;;;2.72;;
16262;SDS011;8239;48.594;8.598;2023-05-07T07:26:47;3.05;;;2.42;;
16262;SDS011;8239;48.594;8.598;2023-05-07T07:29:14;2.97;;;2.30;;
16262;SDS011;8239;48.594;8.598;2023-05-07T07:31:41;2.53;;;2.33;;
16262;SDS011;8239;48.594;8.598;2023-05-07T07:34:07;2.50;;;2.30;;
16262;SDS011;8239;48.594;8.598;2023-05-07T07:36:34;2.60;;;2.40;;
16262;SDS011;8239;48.594;8.598;2023-05-07T07:39:01;2.25;;;2.00;;
16262;SDS011;8239;48.594;8.598;2023-05-07T07:41:30;2.20;;;2.10;;
16262;SDS011;8239;48.594;8.598;2023-05-07T07:43:57;2.55;;;2.15;;
16262;SDS011;8239;48.594;8.598;2023-05-07T07:46:24;2.47;;;2.28;;
16262;SDS011;8239;48.594;8.598;2023-05-07T07:48:51;2.40;;;2.20;;
16262;SDS011;8239;48.594;8.598;2023-05-07T07:51:19;2.70;;;2.50;;
16262;SDS011;8239;48.594;8.598;2023-05-07T07:53:46;2.58;;;2.40;;
16262;SDS011;8239;48.594;8.598;2023-05-07T07:56:13;2.53;;;2.25;;
16262;SDS011;8239;48.594;8.598;2023-05-07T07:58:41;2.65;;;2.47;;
16262;SDS011;8239;48.594;8.598;2023-05-07T08:01:08;2.60;;;2.40;;
16262;SDS011;8239;48.594;8.598;2023-05-07T08:03:37;2.53;;;2.40;;
16262;SDS011;8239;48.594;8.598;2023-05-07T08:06:04;2.92;;;2.58;;
16262;SDS011;8239;48.594;8.598;2023-05-07T08:08:31;2.90;;;2.70;;
16262;SDS011;8239;48.594;8.598;2023-05-07T08:10:58;2.80;;;2.60;;
16262;SDS011;8239;48.594;8.598;2023-05-07T08:13:25;2.50;;;2.30;;
16262;SDS011;8239;48.594;8.598;2023-05-07T08:15:54;2.60;;;2.40;;
16262;SDS011;8239;48.594;8.598;2023-05-07T08:18:39;3.45;;;3.15;;
16262;SDS011;8239;48.594;8.598;2023-05-07T08:21:06;3.20;;;3.00;;
16262;SDS011;8239;48.594;8.598;2023-05-07T08:23:33;3.20;;;3.00;;
16262;SDS011;8239;48.594;8.598;2023-05-07T08:26:00;2.90;;;2.78;;
16262;SDS011;8239;48.594;8.598;2023-05-07T08:28:27;3.17;;;2.97;;
16262;SDS011;8239;48.594;8.598;2023-05-07T08:30:56;2.55;;;2.35;;
16262;SDS011;8239;48.594;8.598;2023-05-07T08:33:25;2.97;;;2.70;;
16262;SDS011;8239;48.594;8.598;2023-05-07T08:35:52;2.92;;;2.72;;
16262;SDS011;8239;48.594;8.598;2023-05-07T08:38:19;3.65;;;2.80;;
16262;SDS011;8239;48.594;8.598;2023-05-07T08:40:46;2.75;;;2.58;;
16262;SDS011;8239;48.594;8.598;2023-05-07T08:43:14;2.42;;;2.20;;
16262;SDS011;8239;48.594;8.598;2023-05-07T08:45:41;3.78;;;2.50;;
16262;SDS011;8239;48.594;8.598;2023-05-07T08:48:15;2.60;;;2.40;;
16262;SDS011;8239;48.594;8.598;2023-05-07T08:50:43;2.60;;;2.40;;
16262;SDS011;8239;48.594;8.598;2023-05-07T08:53:10;2.42;;;2.20;;
16262;SDS011;8239;48.594;8.598;2023-05-07T08:55:37;3.53;;;2.30;;
16262;SDS011;8239;48.594;8.598;2023-05-07T08:58:04;2.63;;;2.42;;
16262;SDS011;8239;48.594;8.598;2023-05-07T09:00:32;2.65;;;2.40;;
16262;SDS011;8239;48.594;8.598;2023-05-07T09:02:59;2.38;;;2.25;;
16262;SDS011;8239;48.594;8.598;2023-05-07T09:05:28;2.30;;;2.13;;
16262;SDS011;8239;48.594;8.598;2023-05-07T09:07:55;2.40;;;2.20;;
16262;SDS011;8239;48.594;8.598;2023-05-07T09:10:25;3.78;;;3.53;;
16262;SDS011;8239;48.594;8.598;2023-05-07T09:12:52;2.90;;;2.58;;
16262;SDS011;8239;48.594;8.598;2023-05-07T09:15:19;2.63;;;2.35;;
16262;SDS011;8239;48.594;8.598;2023-05-07T09:17:46;2.70;;;2.50;;
16262;SDS011;8239;48.594;8.598;2023-05-07T09:20:13;2.55;;;2.35;;
16262;SDS011;8239;48.594;8.598;2023-05-07T09:22:43;7.38;;;2.80;;
16262;SDS011;8239;48.594;8.598;2023-05-07T09:25:10;2.60;;;2.40;;
16262;SDS011;8239;48.594;8.598;2023-05-07T09:27:37;2.60;;;2.40;;
16262;SDS011;8239;48.594;8.598;2023-05-07T09:30:05;2.70;;;2.50;;
16262;SDS011;8239;48.594;8.598;2023-05-07T09:32:34;2.10;;;2.00;;
16262;SDS011;8239;48.594;8.598;2023-05-07T09:35:03;6.85;;;2.65;;
16262;SDS011;8239;48.594;8.598;2023-05-07T09:37:30;7.28;;;2.40;;
16262;SDS011;8239;48.594;8.598;2023-05-07T09:39:59;2.63;;;2.38;;
16262;SDS011;8239;48.594;8.598;2023-05-07T09:42:26;2.70;;;2.50;;
16262;SDS011;8239;48.594;8.598;2023-05-07T09:44:54;2.60;;;2.40;;
16262;SDS011;8239;48.594;8.598;2023-05-07T09:47:23;3.03;;;2.63;;
16262;SDS011;8239;48.594;8.598;2023-05-07T09:49:50;3.00;;;2.35;;
16262;SDS011;8239;48.594;8.598;2023-05-07T09:52:23;2.33;;;2.13;;
16262;SDS011;8239;48.594;8.598;2023-05-07T09:54:53;3.03;;;2.30;;
16262;SDS011;8239;48.594;8.598;2023-05-07T09:57:26;4.85;;;2.65;;
16262;SDS011;8239;48.594;8.598;2023-05-07T09:59:55;2.40;;;2.20;;
16262;SDS011;8239;48.594;8.598;2023-05-07T10:02:25;2.40;;;2.20;;
16262;SDS011;8239;48.594;8.598;2023-05-07T10:04:55;3.10;;;2.20;;
16262;SDS011;8239;48.594;8.598;2023-05-07T10:07:25;1.77;;;1.67;;
16262;SDS011;8239;48.594;8.598;2023-05-07T10:09:53;1.95;;;1.80;;
16262;SDS011;8239;48.594;8.598;2023-05-07T10:12:21;2.25;;;1.80;;
16262;SDS011;8239;48.594;8.598;2023-05-07T10:14:50;1.63;;;1.50;;
16262;SDS011;8239;48.594;8.598;2023-05-07T10:17:20;1.23;;;1.20;;
16262;SDS011;8239;48.594;8.598;2023-05-07T10:19:49;2.63;;;1.40;;
16262;SDS011;8239;48.594;8.598;2023-05-07T10:22:19;1.98;;;1.73;;
16262;SDS011;8239;48.594;8.598;2023-05-07T10:24:47;2.00;;;1.90;;
16262;SDS011;8239;48.594;8.598;2023-05-07T10:27:18;1.80;;;1.70;;
16262;SDS011;8239;48.594;8.598;2023-05-07T10:29:49;2.53;;;1.70;;
16262;SDS011;8239;48.594;8.598;2023-05-07T10:32:30;2.47;;;1.75;;
16262;SDS011;8239;48.594;8.598;2023-05-07T10:35:06;1.85;;;1.63;;
16262;SDS011;8239;48.594;8.598;2023-05-07T10:37:38;1.83;;;1.50;;
16262;SDS011;8239;48.594;8.598;2023-05-07T10:40:05;3.42;;;2.00;;
16262;SDS011;8239;48.594;8.598;2023-05-07T10:42:34;4.55;;;2.00;;
16262;SDS011;8239;48.594;8.598;2023-05-07T10:45:15;1.90;;;1.80;;
16262;SDS011;8239;48.594;8.598;2023-05-07T10:50:39;4.10;;;1.77;;
16262;SDS011;8239;48.594;8.598;2023-05-07T10:53:20;2.17;;;1.60;;
16262;SDS011;8239;48.594;8.598;2023-05-07T10:58:53;2.53;;;1.50;;
16262;SDS011;8239;48.594;8.598;2023-05-07T11:04:22;4.00;;;1.67;;
16262;SDS011;8239;48.594;8.598;2023-05-07T11:10:05;5.75;;;2.30;;
16262;SDS011;8239;48.594;8.598;2023-05-07T11:12:52;7.18;;;2.60;;
16262;SDS011;8239;48.594;8.598;2023-05-07T11:18:14;6.15;;;2.40;;
16262;SDS011;8239;48.594;8.598;2023-05-07T11:20:56;3.15;;;2.10;;
16262;SDS011;8239;48.594;8.598;2023-05-07T11:26:42;3.25;;;2.35;;
16262;SDS011;8239;48.594;8.598;2023-05-07T11:29:11;5.22;;;2.50;;
16262;SDS011;8239;48.594;8.598;2023-05-07T11:31:39;5.28;;;2.85;;
16262;SDS011;8239;48.594;8.598;2023-05-07T11:34:06;5.65;;;3.45;;
16262;SDS011;8239;48.594;8.598;2023-05-07T11:36:35;5.38;;;4.70;;
16262;SDS011;8239;48.594;8.598;2023-05-07T11:39:22;4.18;;;3.67;;
16262;SDS011;8239;48.594;8.598;2023-05-07T11:41:53;4.50;;;2.67;;
16262;SDS011;8239;48.594;8.598;2023-05-07T11:44:20;4.60;;;3.15;;
16262;SDS011;8239;48.594;8.598;2023-05-07T11:46:48;4.10;;;2.90;;
16262;SDS011;8239;48.594;8.598;2023-05-07T11:49:15;4.22;;;3.25;;
16262;SDS011;8239;48.594;8.598;2023-05-07T11:51:44;3.70;;;2.67;;
16262;SDS011;8239;48.594;8.598;2023-05-07T11:54:11;3.47;;;2.60;;
16262;SDS011;8239;48.594;8.598;2023-05-07T11:56:43;2.55;;;2.35;;
16262;SDS011;8239;48.594;8.598;2023-05-07T11:59:12;2.42;;;2.22;;
16262;SDS011;8239;48.594;8.598;2023-05-07T12:01:45;3.67;;;2.60;;
16262;SDS011;8239;48.594;8.598;2023-05-07T12:04:12;20.88;;;2.63;;
16262;SDS011;8239;48.594;8.598;2023-05-07T12:06:39;3.45;;;2.90;;
16262;SDS011;8239;48.594;8.598;2023-05-07T12:09:08;3.03;;;2.67;;
16262;SDS011;8239;48.594;8.598;2023-05-07T12:11:36;3.53;;;2.78;;
16262;SDS011;8239;48.594;8.598;2023-05-07T12:14:05;5.80;;;3.15;;
16262;SDS011;8239;48.594;8.598;2023-05-07T12:16:32;4.45;;;2.95;;
16262;SDS011;8239;48.594;8.598;2023-05-07T12:19:00;3.83;;;3.40;;
16262;SDS011;8239;48.594;8.598;2023-05-07T12:21:27;5.55;;;2.92;;
16262;SDS011;8239;48.594;8.598;2023-05-07T12:23:54;3.05;;;2.72;;
16262;SDS011;8239;48.594;8.598;2023-05-07T12:26:23;3.85;;;2.65;;
16262;SDS011;8239;48.594;8.598;2023-05-07T12:28:51;2.90;;;2.70;;
16262;SDS011;8239;48.594;8.598;2023-05-07T12:31:18;2.67;;;2.47;;
16262;SDS011;8239;48.594;8.598;2023-05-07T12:33:45;3.57;;;2.30;;
16262;SDS011;8239;48.594;8.598;2023-05-07T12:36:12;3.70;;;2.73;;
16262;SDS011;8239;48.594;8.598;2023-05-07T12:38:40;3.00;;;2.70;;
16262;SDS011;8239;48.594;8.598;2023-05-07T12:41:07;3.10;;;2.77;;
16262;SDS011;8239;48.594;8.598;2023-05-07T12:43:38;2.97;;;2.30;;
16262;SDS011;8239;48.594;8.598;2023-05-07T12:46:06;2.70;;;2.50;;
16262;SDS011;8239;48.594;8.598;2023-05-07T12:48:35;2.67;;;2.27;;
16262;SDS011;8239;48.594;8.598;2023-05-07T12:51:03;3.37;;;2.70;;
16262;SDS011;8239;48.594;8.598;2023-05-07T12:53:31;3.40;;;3.07;;
16262;SDS011;8239;48.594;8.598;2023-05-07T12:55:58;3.07;;;2.60;;
16262;SDS011;8239;48.594;8.598;2023-05-07T12:58:26;2.87;;;2.67;;
16262;SDS011;8239;48.594;8.598;2023-05-07T13:00:58;2.87;;;2.67;;
16262;SDS011;8239;48.594;8.598;2023-05-07T13:03:27;2.93;;;2.63;;
16262;SDS011;8239;48.594;8.598;2023-05-07T13:05:54;3.00;;;2.70;;
16262;SDS011;8239;48.594;8.598;2023-05-07T13:08:27;3.67;;;2.73;;
16262;SDS011;8239;48.594;8.598;2023-05-07T13:10:56;3.70;;;3.00;;
16262;SDS011;8239;48.594;8.598;2023-05-07T13:13:24;4.70;;;3.23;;
16262;SDS011;8239;48.594;8.598;2023-05-07T13:15:52;3.10;;;2.90;;
16262;SDS011;8239;48.594;8.598;2023-05-07T13:18:21;3.53;;;3.23;;
16262;SDS011;8239;48.594;8.598;2023-05-07T13:20:50;5.53;;;3.27;;
16262;SDS011;8239;48.594;8.598;2023-05-07T13:23:17;6.13;;;3.43;;
16262;SDS011;8239;48.594;8.598;2023-05-07T13:25:47;3.70;;;3.17;;
16262;SDS011;8239;48.594;8.598;2023-05-07T13:28:15;3.50;;;2.80;;
16262;SDS011;8239;48.594;8.598;2023-05-07T13:30:42;3.47;;;3.17;;
16262;SDS011;8239;48.594;8.598;2023-05-07T13:33:09;3.97;;;3.40;;
16262;SDS011;8239;48.594;8.598;2023-05-07T13:35:38;4.53;;;3.50;;
16262;SDS011;8239;48.594;8.598;2023-05-07T13:38:05;3.50;;;3.20;;
16262;SDS011;8239;48.594;8.598;2023-05-07T13:40:32;4.43;;;3.10;;
16262;SDS011;8239;48.594;8.598;2023-05-07T13:42:59;3.57;;;3.27;;
16262;SDS011;8239;48.594;8.598;2023-05-07T13:45:27;4.93;;;3.30;;
16262;SDS011;8239;48.594;8.598;2023-05-07T13:47:54;4.33;;;3.10;;
16262;SDS011;8239;48.594;8.598;2023-05-07T13:50:22;4.30;;;3.03;;
16262;SDS011;8239;48.594;8.598;2023-05-07T13:52:51;4.17;;;3.67;;
16262;SDS011;8239;48.594;8.598;2023-05-07T13:55:18;4.97;;;3.60;;
16262;SDS011;8239;48.594;8.598;2023-05-07T13:57:46;4.50;;;3.20;;
16262;SDS011;8239;48.594;8.598;2023-05-07T14:00:13;3.35;;;2.88;;
16262;SDS011;8239;48.594;8.598;2023-05-07T14:02:41;3.72;;;3.05;;
16262;SDS011;8239;48.594;8.598;2023-05-07T14:05:08;4.77;;;3.30;;
16262;SDS011;8239;48.594;8.598;2023-05-07T14:07:36;4.65;;;4.05;;
16262;SDS011;8239;48.594;8.598;2023-05-07T14:10:05;4.97;;;4.35;;
16262;SDS011;8239;48.594;8.598;2023-05-07T14:12:33;4.68;;;4.10;;
16262;SDS011;8239;48.594;8.598;2023-05-07T14:15:00;4.53;;;4.13;;
16262;SDS011;8239;48.594;8.598;2023-05-07T14:17:27;3.83;;;3.50;;
16262;SDS011;8239;48.594;8.598;2023-05-07T14:19:55;3.92;;;3.55;;
16262;SDS011;8239;48.594;8.598;2023-05-07T14:22:22;5.35;;;4.85;;
16262;SDS011;8239;48.594;8.598;2023-05-07T14:24:49;4.60;;;4.20;;
16262;SDS011;8239;48.594;8.598;2023-05-07T14:27:18;3.60;;;3.30;;
16262;SDS011;8239;48.594;8.598;2023-05-07T14:29:45;2.90;;;2.53;;
16262;SDS011;8239;48.594;8.598;2023-05-07T14:32:16;2.60;;;2.40;;
16262;SDS011;8239;48.594;8.598;2023-05-07T14:34:43;2.45;;;2.25;;
16262;SDS011;8239;48.594;8.598;2023-05-07T14:37:10;2.20;;;2.05;;
16262;SDS011;8239;48.594;8.598;2023-05-07T14:39:37;2.22;;;1.92;;
16262;SDS011;8239;48.594;8.598;2023-05-07T14:42:04;2.63;;;1.90;;
16262;SDS011;8239;48.594;8.598;2023-05-07T14:44:34;2.42;;;2.10;;
16262;SDS011;8239;48.594;8.598;2023-05-07T14:47:01;2.10;;;1.90;;
16262;SDS011;8239;48.594;8.598;2023-05-07T14:49:28;3.58;;;2.20;;
16262;SDS011;8239;48.594;8.598;2023-05-07T14:51:56;2.08;;;1.98;;
16262;SDS011;8239;48.594;8.598;2023-05-07T14:54:24;3.88;;;2.05;;
16262;SDS011;8239;48.594;8.598;2023-05-07T14:56:51;2.08;;;1.90;;
16262;SDS011;8239;48.594;8.598;2023-05-07T14:59:18;2.10;;;1.70;;
16262;SDS011;8239;48.594;8.598;2023-05-07T15:01:48;2.30;;;2.00;;
16262;SDS011;8239;48.594;8.598;2023-05-07T15:04:15;1.85;;;1.75;;
16262;SDS011;8239;48.594;8.598;2023-05-07T15:06:42;2.17;;;1.83;;
16262;SDS011;8239;48.594;8.598;2023-05-07T15:09:10;2.20;;;2.00;;
16262;SDS011;8239;48.594;8.598;2023-05-07T15:11:37;1.60;;;1.50;;
16262;SDS011;8239;48.594;8.598;2023-05-07T15:14:04;2.00;;;1.90;;
16262;SDS011;8239;48.594;8.598;2023-05-07T15:16:31;4.20;;;2.40;;
16262;SDS011;8239;48.594;8.598;2023-05-07T15:19:00;2.90;;;2.15;;
16262;SDS011;8239;48.594;8.598;2023-05-07T15:21:27;2.17;;;2.00;;
16262;SDS011;8239;48.594;8.598;2023-05-07T15:23:55;2.42;;;1.90;;